Time,TemperatureF,DewpointF,PressureIn,WindDirection,WindDirectionDegrees,WindSpeedMPH,WindSpeedGustMPH,Humidity,HourlyPrecipIn,Conditions,Clouds,dailyrainin,SoftwareType,DateUTC
2013-01-09 00:03:00,30.0,23.0,30.40,WNW,293,4.0,10.0,76,0.00,,,0.01,,2013-01-09 05:03:00,
2013-01-09 00:12:00,30.0,23.0,30.40,WNW,293,4.0,10.0,76,0.00,,,0.01,,2013-01-09 05:12:00,
2013-01-09 00:22:00,30.0,24.0,30.40,NW,308,5.0,9.0,77,0.00,,,0.01,,2013-01-09 05:22:00,
2013-01-09 00:33:00,30.0,24.0,30.40,NW,308,5.0,9.0,77,0.00,,,0.01,,2013-01-09 05:33:00,
2013-01-09 00:42:00,30.0,24.0,30.40,NW,308,5.0,9.0,77,0.00,,,0.01,,2013-01-09 05:42:00,
2013-01-09 00:52:00,29.0,23.0,30.41,WNW,287,4.0,9.0,77,0.00,,,0.01,,2013-01-09 05:52:00,
2013-01-09 01:02:00,29.0,23.0,30.41,West,269,3.0,7.0,78,0.00,,,0.01,,2013-01-09 06:02:00,
2013-01-09 01:12:00,29.0,23.0,30.41,West,269,3.0,7.0,78,0.00,,,0.01,,2013-01-09 06:12:00,
2013-01-09 01:22:00,29.0,23.0,30.41,NW,305,4.0,7.0,78,0.00,,,0.01,,2013-01-09 06:22:00,
2013-01-09 01:32:00,30.0,24.0,30.42,NW,315,5.0,10.0,78,0.00,,,0.01,,2013-01-09 06:32:00,
2013-01-09 01:42:00,30.0,24.0,30.42,NW,315,5.0,10.0,78,0.00,,,0.01,,2013-01-09 06:42:00,
2013-01-09 01:52:00,30.0,24.0,30.42,NNW,328,4.0,8.0,78,0.00,,,0.01,,2013-01-09 06:52:00,
2013-01-09 02:02:00,30.0,24.0,30.43,WNW,293,4.0,8.0,79,0.00,,,0.01,,2013-01-09 07:02:00,
2013-01-09 02:12:00,30.0,24.0,30.43,WNW,293,4.0,8.0,79,0.00,,,0.01,,2013-01-09 07:12:00,
2013-01-09 02:22:00,30.0,24.0,30.43,WNW,297,5.0,12.0,77,0.00,,,0.01,,2013-01-09 07:22:00,
2013-01-09 02:32:00,30.0,24.0,30.43,NW,323,4.0,9.0,78,0.00,,,0.01,,2013-01-09 07:32:00,
2013-01-09 02:42:00,30.0,24.0,30.43,NW,323,4.0,9.0,78,0.00,,,0.01,,2013-01-09 07:42:00,
2013-01-09 02:52:00,30.0,24.0,30.43,NW,321,4.0,8.0,79,0.00,,,0.01,,2013-01-09 07:52:00,
2013-01-09 03:02:00,30.0,24.0,30.42,NW,304,4.0,8.0,78,0.00,,,0.01,,2013-01-09 08:02:00,
2013-01-09 03:12:00,30.0,24.0,30.42,NW,304,4.0,8.0,78,0.00,,,0.01,,2013-01-09 08:12:00,
2013-01-09 03:22:00,30.0,24.0,30.42,NW,315,4.0,12.0,79,0.00,,,0.01,,2013-01-09 08:22:00,
2013-01-09 03:32:00,30.0,24.0,30.42,NW,310,4.0,10.0,78,0.00,,,0.01,,2013-01-09 08:32:00,
2013-01-09 03:43:00,30.0,24.0,30.42,NW,310,4.0,10.0,78,0.00,,,0.01,,2013-01-09 08:43:00,
2013-01-09 03:53:00,30.0,24.0,30.42,NW,310,4.0,10.0,78,0.00,,,0.01,,2013-01-09 08:53:00,
2013-01-09 04:02:00,30.0,25.0,30.42,NNW,328,3.0,7.0,80,0.00,,,0.01,,2013-01-09 09:02:00,
2013-01-09 04:12:00,30.0,25.0,30.42,NNW,328,3.0,7.0,80,0.00,,,0.01,,2013-01-09 09:12:00,
2013-01-09 04:22:00,30.0,25.0,30.42,NNW,328,3.0,7.0,80,0.00,,,0.01,,2013-01-09 09:22:00,
2013-01-09 04:32:00,29.0,24.0,30.41,NW,308,2.0,5.0,82,0.00,,,0.01,,2013-01-09 09:32:00,
2013-01-09 04:42:00,29.0,24.0,30.41,NW,308,2.0,5.0,82,0.00,,,0.01,,2013-01-09 09:42:00,
2013-01-09 04:53:00,29.0,24.0,30.42,NW,320,2.0,4.0,82,0.00,,,0.01,,2013-01-09 09:53:00,
2013-01-09 05:02:00,30.0,25.0,30.42,NW,320,2.0,3.0,81,0.00,,,0.01,,2013-01-09 10:02:00,
2013-01-09 05:12:00,30.0,25.0,30.42,NW,320,2.0,3.0,81,0.00,,,0.01,,2013-01-09 10:12:00,
2013-01-09 05:22:00,30.0,25.0,30.42,NW,320,2.0,3.0,81,0.00,,,0.01,,2013-01-09 10:22:00,
2013-01-09 05:32:00,31.0,25.0,30.42,NW,320,1.0,3.0,79,0.00,,,0.01,,2013-01-09 10:32:00,
2013-01-09 05:42:00,31.0,25.0,30.42,NW,320,1.0,3.0,79,0.00,,,0.01,,2013-01-09 10:42:00,
2013-01-09 05:52:00,31.0,25.0,30.42,NW,320,1.0,3.0,79,0.00,,,0.01,,2013-01-09 10:52:00,
2013-01-09 06:02:00,31.0,25.0,30.42,NE,42,1.0,3.0,77,0.00,,,0.01,,2013-01-09 11:02:00,
2013-01-09 06:12:00,31.0,25.0,30.42,NE,42,1.0,3.0,77,0.00,,,0.01,,2013-01-09 11:12:00,
2013-01-09 06:22:00,32.0,25.0,30.42,NE,42,0.0,3.0,76,0.00,,,0.01,,2013-01-09 11:22:00,
2013-01-09 06:33:00,31.0,25.0,30.43,NE,42,1.0,3.0,77,0.00,,,0.01,,2013-01-09 11:33:00,
2013-01-09 06:42:00,31.0,25.0,30.43,NE,42,1.0,3.0,77,0.00,,,0.01,,2013-01-09 11:42:00,
2013-01-09 06:53:00,31.0,25.0,30.44,NE,42,0.0,2.0,77,0.00,,,0.01,,2013-01-09 11:53:00,
2013-01-09 07:03:00,31.0,25.0,30.45,NE,42,0.0,2.0,77,0.00,,,0.01,,2013-01-09 12:03:00,
2013-01-09 07:12:00,31.0,25.0,30.45,NE,42,0.0,2.0,77,0.00,,,0.01,,2013-01-09 12:12:00,
2013-01-09 07:23:00,31.0,25.0,30.45,NE,42,0.0,1.0,78,0.00,,,0.01,,2013-01-09 12:23:00,
2013-01-09 07:33:00,31.0,25.0,30.45,NE,42,1.0,2.0,77,0.00,,,0.01,,2013-01-09 12:33:00,
2013-01-09 07:43:00,31.0,25.0,30.45,NE,42,1.0,2.0,77,0.00,,,0.01,,2013-01-09 12:43:00,
2013-01-09 07:52:00,31.0,25.0,30.46,NE,42,1.0,3.0,77,0.00,,,0.01,,2013-01-09 12:52:00,
2013-01-09 08:03:00,31.0,25.0,30.46,NE,42,1.0,2.0,77,0.00,,,0.01,,2013-01-09 13:03:00,
2013-01-09 08:12:00,31.0,25.0,30.46,NE,42,1.0,2.0,77,0.00,,,0.01,,2013-01-09 13:12:00,
2013-01-09 08:23:00,32.0,25.0,30.46,SE,137,2.0,4.0,76,0.00,,,0.01,,2013-01-09 13:23:00,
2013-01-09 08:33:00,32.0,25.0,30.45,SE,139,1.0,4.0,76,0.00,,,0.01,,2013-01-09 13:33:00,
2013-01-09 08:43:00,32.0,25.0,30.45,SE,139,1.0,4.0,76,0.00,,,0.01,,2013-01-09 13:43:00,
2013-01-09 08:52:00,32.0,25.0,30.45,SSE,152,3.0,6.0,75,0.00,,,0.01,,2013-01-09 13:52:00,
2013-01-09 09:03:00,32.0,25.0,30.45,South,170,3.0,7.0,75,0.00,,,0.01,,2013-01-09 14:03:00,
2013-01-09 09:12:00,32.0,25.0,30.45,South,170,3.0,7.0,75,0.00,,,0.01,,2013-01-09 14:12:00,
2013-01-09 09:23:00,33.0,25.0,30.44,South,177,3.0,8.0,73,0.00,,,0.01,,2013-01-09 14:23:00,
2013-01-09 09:33:00,33.0,26.0,30.43,South,187,6.0,10.0,74,0.00,,,0.01,,2013-01-09 14:33:00,
2013-01-09 09:43:00,33.0,26.0,30.43,South,187,6.0,10.0,74,0.00,,,0.01,,2013-01-09 14:43:00,
2013-01-09 09:53:00,33.0,25.0,30.44,SE,143,5.0,9.0,73,0.00,,,0.01,,2013-01-09 14:53:00,
2013-01-09 10:03:00,33.0,26.0,30.44,South,170,5.0,10.0,75,0.00,,,0.01,,2013-01-09 15:03:00,
2013-01-09 10:13:00,33.0,26.0,30.44,South,170,5.0,10.0,75,0.00,,,0.01,,2013-01-09 15:13:00,
2013-01-09 10:23:00,33.0,26.0,30.42,SSE,166,3.0,7.0,75,0.00,,,0.01,,2013-01-09 15:23:00,
2013-01-09 10:33:00,33.0,27.0,30.42,SSE,162,4.0,10.0,77,0.00,,,0.01,,2013-01-09 15:33:00,
2013-01-09 10:43:00,33.0,27.0,30.42,SSE,162,4.0,10.0,77,0.00,,,0.01,,2013-01-09 15:43:00,
2013-01-09 10:53:00,33.0,27.0,30.42,SSE,162,4.0,10.0,77,0.00,,,0.01,,2013-01-09 15:53:00,
2013-01-09 11:04:00,33.0,27.0,30.40,SE,143,5.0,8.0,78,0.00,,,0.01,,2013-01-09 16:04:00,
2013-01-09 11:12:00,33.0,27.0,30.40,SE,143,5.0,8.0,78,0.00,,,0.01,,2013-01-09 16:12:00,
2013-01-09 11:23:00,32.0,26.0,30.38,SE,143,6.0,10.0,78,0.00,,,0.01,,2013-01-09 16:23:00,
2013-01-09 11:33:00,33.0,27.0,30.37,SE,134,5.0,10.0,77,0.00,,,0.01,,2013-01-09 16:33:00,
2013-01-09 11:43:00,33.0,27.0,30.37,SE,134,5.0,10.0,77,0.00,,,0.01,,2013-01-09 16:43:00,
2013-01-09 11:53:00,33.0,26.0,30.35,SE,128,5.0,9.0,76,0.00,,,0.01,,2013-01-09 16:53:00,
2013-01-09 12:03:00,33.0,26.0,30.34,SE,144,5.0,10.0,76,0.00,,,0.01,,2013-01-09 17:03:00,
2013-01-09 12:12:00,33.0,26.0,30.34,SE,144,5.0,10.0,76,0.00,,,0.01,,2013-01-09 17:12:00,
2013-01-09 12:23:00,34.0,27.0,30.30,SE,140,6.0,10.0,76,0.00,,,0.01,,2013-01-09 17:23:00,
2013-01-09 12:33:00,35.0,29.0,30.31,SSE,159,5.0,11.0,77,0.00,,,0.01,,2013-01-09 17:33:00,
2013-01-09 12:43:00,35.0,29.0,30.31,SSE,159,5.0,11.0,77,0.00,,,0.01,,2013-01-09 17:43:00,
2013-01-09 12:53:00,35.0,29.0,30.30,South,171,5.0,12.0,78,0.00,,,0.01,,2013-01-09 17:53:00,
2013-01-09 13:03:00,35.0,29.0,30.30,South,171,5.0,12.0,78,0.00,,,0.01,,2013-01-09 18:03:00,
2013-01-09 13:13:00,35.0,29.0,30.30,South,171,5.0,12.0,78,0.00,,,0.01,,2013-01-09 18:13:00,
2013-01-09 13:24:00,36.0,30.0,30.29,SSW,195,4.0,9.0,79,0.00,,,0.01,,2013-01-09 18:24:00,
2013-01-09 13:33:00,36.0,31.0,30.26,SSE,149,7.0,13.0,81,0.00,,,0.00,,2013-01-09 18:33:00,
2013-01-09 13:43:00,36.0,31.0,30.26,SSE,149,7.0,13.0,81,0.00,,,0.00,,2013-01-09 18:43:00,
2013-01-09 13:53:00,36.0,31.0,30.23,SSE,168,6.0,13.0,82,0.00,,,0.00,,2013-01-09 18:53:00,
2013-01-09 14:03:00,36.0,31.0,30.22,SSE,158,6.0,11.0,82,0.00,,,0.00,,2013-01-09 19:03:00,
2013-01-09 14:13:00,36.0,31.0,30.22,SSE,158,6.0,11.0,82,0.00,,,0.00,,2013-01-09 19:13:00,
2013-01-09 14:23:00,36.0,31.0,30.19,SE,130,7.0,11.0,83,0.00,,,0.00,,2013-01-09 19:23:00,
2013-01-09 14:33:00,36.0,32.0,30.19,SSE,152,5.0,10.0,84,0.00,,,0.00,,2013-01-09 19:33:00,
2013-01-09 14:43:00,36.0,32.0,30.19,SSE,152,5.0,10.0,84,0.00,,,0.00,,2013-01-09 19:43:00,
2013-01-09 14:52:00,36.0,32.0,30.19,SSE,152,5.0,10.0,84,0.00,,,0.00,,2013-01-09 19:52:00,
2013-01-09 15:03:00,36.0,33.0,30.18,South,172,5.0,10.0,87,0.00,,,0.00,,2013-01-09 20:03:00,
2013-01-09 15:12:00,36.0,33.0,30.18,South,172,5.0,10.0,87,0.00,,,0.00,,2013-01-09 20:12:00,
2013-01-09 15:23:00,36.0,33.0,30.19,South,185,4.0,8.0,87,0.00,,,0.00,,2013-01-09 20:23:00,
2013-01-09 15:33:00,37.0,34.0,30.19,SSW,196,2.0,8.0,87,0.00,,,0.00,,2013-01-09 20:33:00,
2013-01-09 15:43:00,37.0,34.0,30.19,SSW,196,2.0,8.0,87,0.00,,,0.00,,2013-01-09 20:43:00,
2013-01-09 15:53:00,36.0,33.0,30.17,SW,228,3.0,9.0,87,0.00,,,0.00,,2013-01-09 20:53:00,
2013-01-09 16:03:00,36.0,32.0,30.16,SSE,168,1.0,8.0,86,0.00,,,0.00,,2013-01-09 21:03:00,
2013-01-09 16:13:00,36.0,32.0,30.16,SSE,168,1.0,8.0,86,0.00,,,0.00,,2013-01-09 21:13:00,
2013-01-09 16:23:00,36.0,31.0,30.16,SSW,203,5.0,12.0,83,0.00,,,0.00,,2013-01-09 21:23:00,
2013-01-09 16:33:00,36.0,31.0,30.13,South,181,3.0,9.0,82,0.00,,,0.00,,2013-01-09 21:33:00,
2013-01-09 16:43:00,36.0,31.0,30.13,South,181,3.0,9.0,82,0.00,,,0.00,,2013-01-09 21:43:00,
2013-01-09 16:52:00,36.0,31.0,30.11,SSE,157,4.0,12.0,82,0.00,,,0.00,,2013-01-09 21:52:00,
2013-01-09 17:03:00,35.0,30.0,30.11,SW,214,3.0,7.0,82,0.00,,,0.00,,2013-01-09 22:03:00,
2013-01-09 17:12:00,35.0,30.0,30.11,SW,214,3.0,7.0,82,0.00,,,0.00,,2013-01-09 22:12:00,
2013-01-09 17:23:00,35.0,30.0,30.11,WSW,237,2.0,7.0,83,0.00,,,0.00,,2013-01-09 22:23:00,
2013-01-09 17:33:00,35.0,31.0,30.08,SE,137,4.0,7.0,84,0.00,,,0.00,,2013-01-09 22:33:00,
2013-01-09 17:43:00,35.0,31.0,30.08,SE,137,4.0,7.0,84,0.00,,,0.00,,2013-01-09 22:43:00,
2013-01-09 17:52:00,35.0,31.0,30.07,South,172,3.0,7.0,85,0.00,,,0.00,,2013-01-09 22:52:00,
2013-01-09 18:03:00,35.0,32.0,30.06,SSE,154,2.0,20.0,87,0.00,,,0.00,,2013-01-09 23:03:00,
2013-01-09 18:13:00,35.0,32.0,30.06,SSE,154,2.0,20.0,87,0.00,,,0.00,,2013-01-09 23:13:00,
2013-01-09 18:23:00,35.0,32.0,30.03,SE,143,3.0,8.0,88,0.00,,,0.00,,2013-01-09 23:23:00,
2013-01-09 18:33:00,34.0,31.0,30.01,South,174,5.0,8.0,90,0.00,,,0.00,,2013-01-09 23:33:00,
2013-01-09 18:43:00,34.0,31.0,30.01,South,174,5.0,8.0,90,0.00,,,0.00,,2013-01-09 23:43:00,
2013-01-09 18:52:00,34.0,31.0,30.00,SSW,208,3.0,9.0,90,0.00,,,0.00,,2013-01-09 23:52:00,
2013-01-09 19:03:00,35.0,32.0,30.00,South,184,5.0,11.0,90,0.00,,,0.00,,2013-01-10 00:03:00,
2013-01-09 19:12:00,35.0,32.0,30.00,South,184,5.0,11.0,90,0.00,,,0.00,,2013-01-10 00:12:00,
2013-01-09 19:22:00,36.0,34.0,29.99,SSW,205,4.0,13.0,91,0.00,,,0.00,,2013-01-10 00:22:00,
2013-01-09 19:32:00,36.0,34.0,29.99,West,272,2.0,9.0,92,0.01,,,0.01,,2013-01-10 00:32:00,
2013-01-09 19:42:00,36.0,34.0,29.99,West,272,2.0,9.0,92,0.01,,,0.01,,2013-01-10 00:42:00,
2013-01-09 19:53:00,35.0,33.0,29.98,SW,220,2.0,10.0,93,0.01,,,0.01,,2013-01-10 00:53:00,
2013-01-09 20:02:00,36.0,34.0,29.96,South,177,3.0,10.0,93,0.01,,,0.01,,2013-01-10 01:02:00,
2013-01-09 20:12:00,36.0,34.0,29.96,South,177,3.0,10.0,93,0.01,,,0.01,,2013-01-10 01:12:00,
2013-01-09 20:22:00,36.0,34.0,29.96,South,181,3.0,10.0,94,0.01,,,0.01,,2013-01-10 01:22:00,
2013-01-09 20:33:00,36.0,34.0,29.95,SSW,203,2.0,8.0,94,0.00,,,0.01,,2013-01-10 01:33:00,
2013-01-09 20:43:00,36.0,34.0,29.95,SSW,203,2.0,8.0,94,0.00,,,0.01,,2013-01-10 01:43:00,
2013-01-09 20:52:00,36.0,34.0,29.95,SSW,210,4.0,10.0,94,0.00,,,0.01,,2013-01-10 01:52:00,
2013-01-09 21:03:00,36.0,34.0,29.94,West,279,3.0,9.0,94,0.00,,,0.01,,2013-01-10 02:03:00,
2013-01-09 21:12:00,36.0,34.0,29.94,West,279,3.0,9.0,94,0.00,,,0.01,,2013-01-10 02:12:00,
2013-01-09 21:22:00,36.0,34.0,29.93,WSW,238,5.0,13.0,93,0.00,,,0.01,,2013-01-10 02:22:00,
2013-01-09 21:33:00,35.0,33.0,29.93,West,268,4.0,13.0,92,0.00,,,0.01,,2013-01-10 02:33:00,
2013-01-09 21:43:00,35.0,33.0,29.93,West,268,4.0,13.0,92,0.00,,,0.01,,2013-01-10 02:43:00,
2013-01-09 21:52:00,35.0,33.0,29.93,West,268,4.0,13.0,92,0.00,,,0.01,,2013-01-10 02:52:00,
2013-01-09 22:03:00,35.0,32.0,29.91,WNW,293,5.0,16.0,87,0.00,,,0.01,,2013-01-10 03:03:00,
2013-01-09 22:12:00,35.0,32.0,29.91,WNW,293,5.0,16.0,87,0.00,,,0.01,,2013-01-10 03:12:00,
2013-01-09 22:22:00,35.0,31.0,29.91,WSW,245,5.0,14.0,85,0.00,,,0.01,,2013-01-10 03:22:00,
2013-01-09 22:33:00,34.0,30.0,29.91,WSW,254,5.0,16.0,85,0.00,,,0.01,,2013-01-10 03:33:00,
2013-01-09 22:43:00,34.0,30.0,29.91,WSW,254,5.0,16.0,85,0.00,,,0.01,,2013-01-10 03:43:00,
2013-01-09 22:52:00,33.0,29.0,29.91,WNW,302,5.0,16.0,86,0.00,,,0.01,,2013-01-10 03:52:00,
2013-01-09 23:02:00,33.0,30.0,29.90,West,280,6.0,15.0,88,0.00,,,0.01,,2013-01-10 04:02:00,
2013-01-09 23:12:00,33.0,30.0,29.90,West,280,6.0,15.0,88,0.00,,,0.01,,2013-01-10 04:12:00,
2013-01-09 23:22:00,32.0,29.0,29.91,WNW,298,7.0,14.0,89,0.00,,,0.01,,2013-01-10 04:22:00,
2013-01-09 23:32:00,32.0,29.0,29.91,West,260,7.0,15.0,89,0.00,,,0.01,,2013-01-10 04:32:00,
2013-01-09 23:43:00,32.0,29.0,29.91,West,260,7.0,15.0,89,0.00,,,0.01,,2013-01-10 04:43:00,
2013-01-09 23:52:00,31.0,28.0,29.90,WNW,289,7.0,16.0,89,0.00,,,0.01,,2013-01-10 04:52:00,